sensor_id;sensor_type;location;lat;lon;timestamp;temperature;humidity
23405;DHT22;11875;49.356;2.718;2024-03-29T00:01:17;11.60;99.90
23405;DHT22;11875;49.356;2.718;2024-03-29T00:03:42;11.50;99.90
23405;DHT22;11875;49.356;2.718;2024-03-29T00:06:08;11.30;99.90
23405;DHT22;11875;49.356;2.718;2024-03-29T00:08:34;11.30;99.90
23405;DHT22;11875;49.356;2.718;2024-03-29T00:10:59;11.20;99.90
23405;DHT22;11875;49.356;2.718;2024-03-29T00:13:25;11.20;99.90
23405;DHT22;11875;49.356;2.718;2024-03-29T00:15:50;11.20;99.90
23405;DHT22;11875;49.356;2.718;2024-03-29T00:18:16;11.20;99.90
23405;DHT22;11875;49.356;2.718;2024-03-29T00:20:42;11.00;99.90
23405;DHT22;11875;49.356;2.718;2024-03-29T00:23:07;10.90;99.90
23405;DHT22;11875;49.356;2.718;2024-03-29T00:25:33;11.00;99.90
23405;DHT22;11875;49.356;2.718;2024-03-29T00:27:58;11.10;99.90
23405;DHT22;11875;49.356;2.718;2024-03-29T00:30:24;11.20;99.90
23405;DHT22;11875;49.356;2.718;2024-03-29T00:32:50;11.20;99.90
23405;DHT22;11875;49.356;2.718;2024-03-29T00:35:15;11.40;99.90
23405;DHT22;11875;49.356;2.718;2024-03-29T00:37:41;11.30;99.90
23405;DHT22;11875;49.356;2.718;2024-03-29T00:40:07;11.30;99.90
23405;DHT22;11875;49.356;2.718;2024-03-29T00:42:32;11.30;99.90
23405;DHT22;11875;49.356;2.718;2024-03-29T00:44:58;11.40;99.90
23405;DHT22;11875;49.356;2.718;2024-03-29T00:47:23;11.40;99.90
23405;DHT22;11875;49.356;2.718;2024-03-29T00:49:49;11.40;99.90
23405;DHT22;11875;49.356;2.718;2024-03-29T00:52:14;11.70;99.90
23405;DHT22;11875;49.356;2.718;2024-03-29T00:54:40;11.50;99.90
23405;DHT22;11875;49.356;2.718;2024-03-29T00:57:06;11.50;99.90
23405;DHT22;11875;49.356;2.718;2024-03-29T00:59:37;11.30;99.90
23405;DHT22;11875;49.356;2.718;2024-03-29T01:02:03;11.30;99.90
23405;DHT22;11875;49.356;2.718;2024-03-29T01:04:28;11.30;99.90
23405;DHT22;11875;49.356;2.718;2024-03-29T01:06:54;11.10;99.90
23405;DHT22;11875;49.356;2.718;2024-03-29T01:09:21;10.80;99.90
23405;DHT22;11875;49.356;2.718;2024-03-29T01:11:47;10.70;99.90
23405;DHT22;11875;49.356;2.718;2024-03-29T01:14:13;10.60;99.90
23405;DHT22;11875;49.356;2.718;2024-03-29T01:16:38;10.60;99.90
23405;DHT22;11875;49.356;2.718;2024-03-29T01:19:04;10.40;99.90
23405;DHT22;11875;49.356;2.718;2024-03-29T01:21:30;10.40;99.90
23405;DHT22;11875;49.356;2.718;2024-03-29T01:23:56;10.30;99.90
23405;DHT22;11875;49.356;2.718;2024-03-29T01:26:22;10.40;99.90
23405;DHT22;11875;49.356;2.718;2024-03-29T01:28:47;10.60;99.90
23405;DHT22;11875;49.356;2.718;2024-03-29T01:31:13;10.40;99.90
23405;DHT22;11875;49.356;2.718;2024-03-29T01:33:39;11.60;99.90
23405;DHT22;11875;49.356;2.718;2024-03-29T01:36:05;10.50;99.90
23405;DHT22;11875;49.356;2.718;2024-03-29T01:38:31;10.60;99.90
23405;DHT22;11875;49.356;2.718;2024-03-29T01:40:56;10.80;99.90
23405;DHT22;11875;49.356;2.718;2024-03-29T01:43:23;10.30;99.90
23405;DHT22;11875;49.356;2.718;2024-03-29T01:45:49;10.50;99.90
23405;DHT22;11875;49.356;2.718;2024-03-29T01:48:17;10.10;99.90
23405;DHT22;11875;49.356;2.718;2024-03-29T01:50:44;10.20;99.90
23405;DHT22;11875;49.356;2.718;2024-03-29T01:53:10;10.40;99.90
23405;DHT22;11875;49.356;2.718;2024-03-29T01:55:37;10.50;99.90
23405;DHT22;11875;49.356;2.718;2024-03-29T01:58:03;11.80;99.90
23405;DHT22;11875;49.356;2.718;2024-03-29T02:00:30;10.70;99.90
23405;DHT22;11875;49.356;2.718;2024-03-29T02:02:57;10.70;99.90
23405;DHT22;11875;49.356;2.718;2024-03-29T02:05:22;10.50;99.90
23405;DHT22;11875;49.356;2.718;2024-03-29T02:07:48;10.50;99.90
23405;DHT22;11875;49.356;2.718;2024-03-29T02:10:15;10.70;99.90
23405;DHT22;11875;49.356;2.718;2024-03-29T02:12:41;10.80;99.90
23405;DHT22;11875;49.356;2.718;2024-03-29T02:15:06;10.90;99.90
23405;DHT22;11875;49.356;2.718;2024-03-29T02:17:32;10.90;99.90
23405;DHT22;11875;49.356;2.718;2024-03-29T02:19:58;10.90;99.90
23405;DHT22;11875;49.356;2.718;2024-03-29T02:22:24;10.80;99.90
23405;DHT22;11875;49.356;2.718;2024-03-29T02:24:54;10.80;99.90
23405;DHT22;11875;49.356;2.718;2024-03-29T02:27:21;10.90;99.90
23405;DHT22;11875;49.356;2.718;2024-03-29T02:29:46;10.80;99.90
23405;DHT22;11875;49.356;2.718;2024-03-29T02:32:12;10.90;99.90
23405;DHT22;11875;49.356;2.718;2024-03-29T02:34:38;11.00;99.90
23405;DHT22;11875;49.356;2.718;2024-03-29T02:37:03;11.10;99.90
23405;DHT22;11875;49.356;2.718;2024-03-29T02:39:30;11.10;99.90
23405;DHT22;11875;49.356;2.718;2024-03-29T02:41:55;11.20;99.90
23405;DHT22;11875;49.356;2.718;2024-03-29T02:44:21;11.30;99.90
23405;DHT22;11875;49.356;2.718;2024-03-29T02:46:47;11.30;99.90
23405;DHT22;11875;49.356;2.718;2024-03-29T02:49:12;11.30;99.90
23405;DHT22;11875;49.356;2.718;2024-03-29T02:51:38;11.30;99.90
23405;DHT22;11875;49.356;2.718;2024-03-29T02:54:04;11.40;99.90
23405;DHT22;11875;49.356;2.718;2024-03-29T02:56:29;11.40;99.90
23405;DHT22;11875;49.356;2.718;2024-03-29T02:58:56;11.40;99.90
23405;DHT22;11875;49.356;2.718;2024-03-29T03:01:21;11.40;99.90
23405;DHT22;11875;49.356;2.718;2024-03-29T03:03:47;11.40;99.90
23405;DHT22;11875;49.356;2.718;2024-03-29T03:06:12;11.30;99.90
23405;DHT22;11875;49.356;2.718;2024-03-29T03:08:38;11.30;99.90
23405;DHT22;11875;49.356;2.718;2024-03-29T03:11:22;11.40;99.90
23405;DHT22;11875;49.356;2.718;2024-03-29T03:13:48;11.40;99.90
23405;DHT22;11875;49.356;2.718;2024-03-29T03:16:14;11.50;99.90
23405;DHT22;11875;49.356;2.718;2024-03-29T03:18:39;11.40;99.90
23405;DHT22;11875;49.356;2.718;2024-03-29T03:21:05;11.50;99.90
23405;DHT22;11875;49.356;2.718;2024-03-29T03:23:31;11.50;99.90
23405;DHT22;11875;49.356;2.718;2024-03-29T03:26:02;11.40;99.90
23405;DHT22;11875;49.356;2.718;2024-03-29T03:28:31;11.40;99.90
23405;DHT22;11875;49.356;2.718;2024-03-29T03:30:56;11.30;99.90
23405;DHT22;11875;49.356;2.718;2024-03-29T03:33:22;11.10;99.90
23405;DHT22;11875;49.356;2.718;2024-03-29T03:35:48;11.20;99.90
23405;DHT22;11875;49.356;2.718;2024-03-29T03:38:14;11.20;99.90
23405;DHT22;11875;49.356;2.718;2024-03-29T03:40:40;11.10;99.90
23405;DHT22;11875;49.356;2.718;2024-03-29T03:43:07;10.90;99.90
23405;DHT22;11875;49.356;2.718;2024-03-29T03:45:37;10.80;99.90
23405;DHT22;11875;49.356;2.718;2024-03-29T03:48:09;10.70;99.90
23405;DHT22;11875;49.356;2.718;2024-03-29T03:50:39;10.60;99.90
23405;DHT22;11875;49.356;2.718;2024-03-29T03:53:07;10.60;99.90
23405;DHT22;11875;49.356;2.718;2024-03-29T03:55:38;10.50;99.90
23405;DHT22;11875;49.356;2.718;2024-03-29T03:58:04;10.40;99.90
23405;DHT22;11875;49.356;2.718;2024-03-29T04:00:30;10.40;99.90
23405;DHT22;11875;49.356;2.718;2024-03-29T04:02:55;10.40;99.90
23405;DHT22;11875;49.356;2.718;2024-03-29T04:05:22;10.40;99.90
23405;DHT22;11875;49.356;2.718;2024-03-29T04:07:48;11.00;99.90
23405;DHT22;11875;49.356;2.718;2024-03-29T04:10:14;10.60;99.90
23405;DHT22;11875;49.356;2.718;2024-03-29T04:12:39;10.70;99.90
23405;DHT22;11875;49.356;2.718;2024-03-29T04:15:05;10.80;99.90
23405;DHT22;11875;49.356;2.718;2024-03-29T04:17:32;10.90;99.90
23405;DHT22;11875;49.356;2.718;2024-03-29T04:19:58;11.00;99.90
23405;DHT22;11875;49.356;2.718;2024-03-29T04:22:24;11.10;99.90
23405;DHT22;11875;49.356;2.718;2024-03-29T04:24:49;11.00;99.90
23405;DHT22;11875;49.356;2.718;2024-03-29T04:27:15;11.00;99.90
23405;DHT22;11875;49.356;2.718;2024-03-29T04:29:41;10.90;99.90
23405;DHT22;11875;49.356;2.718;2024-03-29T04:32:08;10.90;99.90
23405;DHT22;11875;49.356;2.718;2024-03-29T04:34:33;10.80;99.90
23405;DHT22;11875;49.356;2.718;2024-03-29T04:36:59;10.80;99.90
23405;DHT22;11875;49.356;2.718;2024-03-29T04:39:25;10.70;99.90
23405;DHT22;11875;49.356;2.718;2024-03-29T04:41:50;10.60;99.90
23405;DHT22;11875;49.356;2.718;2024-03-29T04:44:24;10.50;99.90
23405;DHT22;11875;49.356;2.718;2024-03-29T04:46:50;10.50;99.90
23405;DHT22;11875;49.356;2.718;2024-03-29T04:49:18;10.50;99.90
23405;DHT22;11875;49.356;2.718;2024-03-29T04:51:48;10.60;99.90
23405;DHT22;11875;49.356;2.718;2024-03-29T04:54:14;10.50;99.90
23405;DHT22;11875;49.356;2.718;2024-03-29T04:56:41;10.40;99.90
23405;DHT22;11875;49.356;2.718;2024-03-29T04:59:07;10.40;99.90
23405;DHT22;11875;49.356;2.718;2024-03-29T05:01:33;10.30;99.90
23405;DHT22;11875;49.356;2.718;2024-03-29T05:04:00;10.40;99.90
23405;DHT22;11875;49.356;2.718;2024-03-29T05:06:26;10.50;99.90
23405;DHT22;11875;49.356;2.718;2024-03-29T05:08:52;10.60;99.90
23405;DHT22;11875;49.356;2.718;2024-03-29T05:11:18;10.30;99.90
23405;DHT22;11875;49.356;2.718;2024-03-29T05:13:44;10.30;99.90
23405;DHT22;11875;49.356;2.718;2024-03-29T05:16:10;10.30;99.90
23405;DHT22;11875;49.356;2.718;2024-03-29T05:18:36;10.30;99.90
23405;DHT22;11875;49.356;2.718;2024-03-29T05:21:02;10.40;99.90
23405;DHT22;11875;49.356;2.718;2024-03-29T05:23:27;10.50;99.90
23405;DHT22;11875;49.356;2.718;2024-03-29T05:25:53;10.60;99.90
23405;DHT22;11875;49.356;2.718;2024-03-29T05:28:19;10.70;99.90
23405;DHT22;11875;49.356;2.718;2024-03-29T05:30:44;10.70;99.90
23405;DHT22;11875;49.356;2.718;2024-03-29T05:33:10;10.60;99.90
23405;DHT22;11875;49.356;2.718;2024-03-29T05:35:36;10.60;99.90
23405;DHT22;11875;49.356;2.718;2024-03-29T05:38:01;10.60;99.90
23405;DHT22;11875;49.356;2.718;2024-03-29T05:40:28;10.60;99.90
23405;DHT22;11875;49.356;2.718;2024-03-29T05:42:54;10.60;99.90
23405;DHT22;11875;49.356;2.718;2024-03-29T05:45:27;10.60;99.90
23405;DHT22;11875;49.356;2.718;2024-03-29T05:47:54;10.70;99.90
23405;DHT22;11875;49.356;2.718;2024-03-29T05:50:21;10.70;99.90
23405;DHT22;11875;49.356;2.718;2024-03-29T05:52:47;10.80;99.90
23405;DHT22;11875;49.356;2.718;2024-03-29T05:55:13;10.70;99.90
23405;DHT22;11875;49.356;2.718;2024-03-29T05:57:38;10.50;99.90
23405;DHT22;11875;49.356;2.718;2024-03-29T06:00:07;10.40;99.90
23405;DHT22;11875;49.356;2.718;2024-03-29T06:02:34;10.30;99.90
23405;DHT22;11875;49.356;2.718;2024-03-29T06:05:00;10.20;99.90
23405;DHT22;11875;49.356;2.718;2024-03-29T06:07:26;10.20;99.90
23405;DHT22;11875;49.356;2.718;2024-03-29T06:09:54;10.20;99.90
23405;DHT22;11875;49.356;2.718;2024-03-29T06:12:20;10.40;99.90
23405;DHT22;11875;49.356;2.718;2024-03-29T06:14:46;10.30;99.90
23405;DHT22;11875;49.356;2.718;2024-03-29T06:17:30;10.20;99.90
23405;DHT22;11875;49.356;2.718;2024-03-29T06:19:56;10.00;99.90
23405;DHT22;11875;49.356;2.718;2024-03-29T06:22:28;10.00;99.90
23405;DHT22;11875;49.356;2.718;2024-03-29T06:24:56;9.90;99.90
23405;DHT22;11875;49.356;2.718;2024-03-29T06:27:24;9.90;99.90
23405;DHT22;11875;49.356;2.718;2024-03-29T06:29:50;9.90;99.90
23405;DHT22;11875;49.356;2.718;2024-03-29T06:32:16;10.00;99.90
23405;DHT22;11875;49.356;2.718;2024-03-29T06:34:46;10.00;99.90
23405;DHT22;11875;49.356;2.718;2024-03-29T06:37:12;9.90;99.90
23405;DHT22;11875;49.356;2.718;2024-03-29T06:39:37;9.90;99.90
23405;DHT22;11875;49.356;2.718;2024-03-29T06:42:03;9.90;99.90
23405;DHT22;11875;49.356;2.718;2024-03-29T06:44:29;10.00;99.90
23405;DHT22;11875;49.356;2.718;2024-03-29T06:46:54;10.20;99.90
23405;DHT22;11875;49.356;2.718;2024-03-29T06:49:20;10.30;99.90
23405;DHT22;11875;49.356;2.718;2024-03-29T06:51:46;10.30;99.90
23405;DHT22;11875;49.356;2.718;2024-03-29T06:54:11;10.40;99.90
23405;DHT22;11875;49.356;2.718;2024-03-29T06:56:37;10.30;99.90
23405;DHT22;11875;49.356;2.718;2024-03-29T06:59:03;10.40;99.90
23405;DHT22;11875;49.356;2.718;2024-03-29T07:01:29;10.50;99.90
23405;DHT22;11875;49.356;2.718;2024-03-29T07:03:56;10.60;99.90
23405;DHT22;11875;49.356;2.718;2024-03-29T07:06:21;10.60;99.90
23405;DHT22;11875;49.356;2.718;2024-03-29T07:08:47;10.70;99.90
23405;DHT22;11875;49.356;2.718;2024-03-29T07:11:13;10.70;99.90
23405;DHT22;11875;49.356;2.718;2024-03-29T07:13:38;10.70;99.90
23405;DHT22;11875;49.356;2.718;2024-03-29T07:16:04;10.70;99.90
23405;DHT22;11875;49.356;2.718;2024-03-29T07:18:32;10.60;99.90
23405;DHT22;11875;49.356;2.718;2024-03-29T07:20:57;10.50;99.90
23405;DHT22;11875;49.356;2.718;2024-03-29T07:23:23;10.40;99.90
23405;DHT22;11875;49.356;2.718;2024-03-29T07:26:03;10.40;99.90
23405;DHT22;11875;49.356;2.718;2024-03-29T07:28:29;10.30;99.90
23405;DHT22;11875;49.356;2.718;2024-03-29T07:30:55;10.40;99.90
23405;DHT22;11875;49.356;2.718;2024-03-29T07:33:21;10.40;99.90
23405;DHT22;11875;49.356;2.718;2024-03-29T07:35:54;10.60;99.90
23405;DHT22;11875;49.356;2.718;2024-03-29T07:38:20;10.70;99.90
23405;DHT22;11875;49.356;2.718;2024-03-29T07:40:47;10.70;99.90
23405;DHT22;11875;49.356;2.718;2024-03-29T07:43:13;10.80;99.90
23405;DHT22;11875;49.356;2.718;2024-03-29T07:45:42;10.90;99.90
23405;DHT22;11875;49.356;2.718;2024-03-29T07:48:13;10.90;99.90
23405;DHT22;11875;49.356;2.718;2024-03-29T07:50:39;11.00;99.90
23405;DHT22;11875;49.356;2.718;2024-03-29T07:53:05;11.00;99.90
23405;DHT22;11875;49.356;2.718;2024-03-29T07:55:31;11.00;99.90
23405;DHT22;11875;49.356;2.718;2024-03-29T07:57:56;11.20;99.90
23405;DHT22;11875;49.356;2.718;2024-03-29T08:00:22;11.20;99.90
23405;DHT22;11875;49.356;2.718;2024-03-29T08:02:48;11.20;99.90
23405;DHT22;11875;49.356;2.718;2024-03-29T08:05:14;11.20;99.90
23405;DHT22;11875;49.356;2.718;2024-03-29T08:07:40;11.40;99.90
23405;DHT22;11875;49.356;2.718;2024-03-29T08:10:06;11.40;99.90
23405;DHT22;11875;49.356;2.718;2024-03-29T08:12:32;11.40;99.90
23405;DHT22;11875;49.356;2.718;2024-03-29T08:14:58;11.40;99.90
23405;DHT22;11875;49.356;2.718;2024-03-29T08:17:24;11.50;99.90
23405;DHT22;11875;49.356;2.718;2024-03-29T08:19:50;11.60;99.90
23405;DHT22;11875;49.356;2.718;2024-03-29T08:22:16;11.70;99.90
23405;DHT22;11875;49.356;2.718;2024-03-29T08:24:41;11.60;99.90
23405;DHT22;11875;49.356;2.718;2024-03-29T08:27:07;11.80;99.90
23405;DHT22;11875;49.356;2.718;2024-03-29T08:29:33;11.70;99.90
23405;DHT22;11875;49.356;2.718;2024-03-29T08:31:58;11.70;99.90
23405;DHT22;11875;49.356;2.718;2024-03-29T08:34:24;11.80;99.90
23405;DHT22;11875;49.356;2.718;2024-03-29T08:36:49;11.90;99.90
23405;DHT22;11875;49.356;2.718;2024-03-29T08:39:15;11.80;99.90
23405;DHT22;11875;49.356;2.718;2024-03-29T08:41:42;11.90;99.90
23405;DHT22;11875;49.356;2.718;2024-03-29T08:44:10;11.80;99.90
23405;DHT22;11875;49.356;2.718;2024-03-29T08:46:35;11.80;99.90
23405;DHT22;11875;49.356;2.718;2024-03-29T08:49:01;11.90;99.90
23405;DHT22;11875;49.356;2.718;2024-03-29T08:51:26;11.90;99.90
23405;DHT22;11875;49.356;2.718;2024-03-29T08:53:52;11.80;99.90
23405;DHT22;11875;49.356;2.718;2024-03-29T08:56:18;11.90;99.90
23405;DHT22;11875;49.356;2.718;2024-03-29T08:58:43;11.80;99.90
23405;DHT22;11875;49.356;2.718;2024-03-29T09:01:09;11.90;99.90
23405;DHT22;11875;49.356;2.718;2024-03-29T09:03:34;12.00;99.90
23405;DHT22;11875;49.356;2.718;2024-03-29T09:06:00;12.20;99.90
23405;DHT22;11875;49.356;2.718;2024-03-29T09:08:26;12.20;99.90
23405;DHT22;11875;49.356;2.718;2024-03-29T09:10:51;12.30;99.90
23405;DHT22;11875;49.356;2.718;2024-03-29T09:13:17;12.40;99.90
23405;DHT22;11875;49.356;2.718;2024-03-29T09:15:42;12.60;99.90
23405;DHT22;11875;49.356;2.718;2024-03-29T09:18:08;12.80;99.90
23405;DHT22;11875;49.356;2.718;2024-03-29T09:20:58;12.80;99.90
23405;DHT22;11875;49.356;2.718;2024-03-29T09:23:25;12.90;99.90
23405;DHT22;11875;49.356;2.718;2024-03-29T09:25:52;12.90;99.90
23405;DHT22;11875;49.356;2.718;2024-03-29T09:28:18;13.00;99.90
23405;DHT22;11875;49.356;2.718;2024-03-29T09:30:43;12.90;99.90
23405;DHT22;11875;49.356;2.718;2024-03-29T09:33:09;12.90;99.90
23405;DHT22;11875;49.356;2.718;2024-03-29T09:35:37;13.00;99.90
23405;DHT22;11875;49.356;2.718;2024-03-29T09:38:02;13.00;99.90
23405;DHT22;11875;49.356;2.718;2024-03-29T09:40:29;13.00;99.90
23405;DHT22;11875;49.356;2.718;2024-03-29T09:42:56;13.10;99.90
23405;DHT22;11875;49.356;2.718;2024-03-29T09:45:34;13.10;99.90
23405;DHT22;11875;49.356;2.718;2024-03-29T09:48:08;13.00;99.90
23405;DHT22;11875;49.356;2.718;2024-03-29T09:50:35;12.80;99.90
23405;DHT22;11875;49.356;2.718;2024-03-29T09:53:07;12.80;99.90
23405;DHT22;11875;49.356;2.718;2024-03-29T09:55:37;12.80;99.90
23405;DHT22;11875;49.356;2.718;2024-03-29T09:58:02;12.80;99.90
23405;DHT22;11875;49.356;2.718;2024-03-29T10:00:28;12.90;99.90
23405;DHT22;11875;49.356;2.718;2024-03-29T10:02:56;12.90;99.90
23405;DHT22;11875;49.356;2.718;2024-03-29T10:05:25;12.90;99.90
23405;DHT22;11875;49.356;2.718;2024-03-29T10:07:53;12.90;99.90
23405;DHT22;11875;49.356;2.718;2024-03-29T10:10:19;13.00;99.90
23405;DHT22;11875;49.356;2.718;2024-03-29T10:12:44;13.00;99.90
23405;DHT22;11875;49.356;2.718;2024-03-29T10:15:10;13.10;99.90
23405;DHT22;11875;49.356;2.718;2024-03-29T10:17:47;13.20;99.90
23405;DHT22;11875;49.356;2.718;2024-03-29T10:20:19;13.10;99.90
23405;DHT22;11875;49.356;2.718;2024-03-29T10:22:46;13.10;99.90
23405;DHT22;11875;49.356;2.718;2024-03-29T10:25:15;13.20;99.90
23405;DHT22;11875;49.356;2.718;2024-03-29T10:27:42;13.20;99.90
23405;DHT22;11875;49.356;2.718;2024-03-29T10:30:09;13.20;99.90
23405;DHT22;11875;49.356;2.718;2024-03-29T10:32:38;13.30;99.90
23405;DHT22;11875;49.356;2.718;2024-03-29T10:35:05;13.30;99.90
23405;DHT22;11875;49.356;2.718;2024-03-29T10:37:31;13.40;99.90
23405;DHT22;11875;49.356;2.718;2024-03-29T10:40:00;13.50;99.90
23405;DHT22;11875;49.356;2.718;2024-03-29T10:42:27;13.60;99.90
23405;DHT22;11875;49.356;2.718;2024-03-29T10:44:53;13.70;99.90
23405;DHT22;11875;49.356;2.718;2024-03-29T10:47:20;13.90;99.90
23405;DHT22;11875;49.356;2.718;2024-03-29T10:49:53;14.00;99.90
23405;DHT22;11875;49.356;2.718;2024-03-29T10:52:22;14.20;99.90
23405;DHT22;11875;49.356;2.718;2024-03-29T10:54:50;14.30;99.90
23405;DHT22;11875;49.356;2.718;2024-03-29T10:57:23;14.50;99.90
23405;DHT22;11875;49.356;2.718;2024-03-29T11:00:15;14.50;99.90
23405;DHT22;11875;49.356;2.718;2024-03-29T11:05:48;14.50;99.90
23405;DHT22;11875;49.356;2.718;2024-03-29T11:08:26;14.60;99.90
23405;DHT22;11875;49.356;2.718;2024-03-29T11:10:57;14.60;99.90
23405;DHT22;11875;49.356;2.718;2024-03-29T11:13:47;14.60;99.90
23405;DHT22;11875;49.356;2.718;2024-03-29T11:16:15;14.60;99.90
23405;DHT22;11875;49.356;2.718;2024-03-29T11:18:43;14.70;99.90
23405;DHT22;11875;49.356;2.718;2024-03-29T11:21:09;14.80;99.90
23405;DHT22;11875;49.356;2.718;2024-03-29T11:23:36;15.00;99.90
23405;DHT22;11875;49.356;2.718;2024-03-29T11:26:02;15.10;99.90
23405;DHT22;11875;49.356;2.718;2024-03-29T11:28:33;15.10;99.90
23405;DHT22;11875;49.356;2.718;2024-03-29T11:31:07;15.10;99.90
23405;DHT22;11875;49.356;2.718;2024-03-29T11:36:19;15.20;99.90
23405;DHT22;11875;49.356;2.718;2024-03-29T11:38:49;15.20;99.90
23405;DHT22;11875;49.356;2.718;2024-03-29T11:41:16;15.20;99.90
23405;DHT22;11875;49.356;2.718;2024-03-29T11:43:53;15.20;99.90
23405;DHT22;11875;49.356;2.718;2024-03-29T11:46:19;15.20;99.90
23405;DHT22;11875;49.356;2.718;2024-03-29T11:48:46;15.20;99.90
23405;DHT22;11875;49.356;2.718;2024-03-29T11:51:16;15.20;99.90
23405;DHT22;11875;49.356;2.718;2024-03-29T11:53:42;15.10;99.90
23405;DHT22;11875;49.356;2.718;2024-03-29T11:56:08;15.10;99.90
23405;DHT22;11875;49.356;2.718;2024-03-29T11:58:34;15.20;99.90
23405;DHT22;11875;49.356;2.718;2024-03-29T12:01:01;15.20;99.90
23405;DHT22;11875;49.356;2.718;2024-03-29T12:03:30;15.20;99.90
23405;DHT22;11875;49.356;2.718;2024-03-29T12:05:57;15.40;99.90
23405;DHT22;11875;49.356;2.718;2024-03-29T12:08:31;15.60;99.90
23405;DHT22;11875;49.356;2.718;2024-03-29T12:11:01;15.80;99.90
23405;DHT22;11875;49.356;2.718;2024-03-29T12:13:28;16.00;99.90
23405;DHT22;11875;49.356;2.718;2024-03-29T12:15:54;16.10;99.90
23405;DHT22;11875;49.356;2.718;2024-03-29T12:18:24;16.20;99.90
23405;DHT22;11875;49.356;2.718;2024-03-29T12:20:51;16.30;99.90
23405;DHT22;11875;49.356;2.718;2024-03-29T12:23:18;16.30;99.90
23405;DHT22;11875;49.356;2.718;2024-03-29T12:25:45;16.30;99.90
23405;DHT22;11875;49.356;2.718;2024-03-29T12:28:12;16.30;99.90
23405;DHT22;11875;49.356;2.718;2024-03-29T12:30:41;16.40;99.90
23405;DHT22;11875;49.356;2.718;2024-03-29T12:33:09;16.40;99.90
23405;DHT22;11875;49.356;2.718;2024-03-29T12:35:37;16.30;99.90
23405;DHT22;11875;49.356;2.718;2024-03-29T12:38:04;16.30;99.90
23405;DHT22;11875;49.356;2.718;2024-03-29T12:40:32;16.50;99.90
23405;DHT22;11875;49.356;2.718;2024-03-29T12:43:06;16.60;99.90
23405;DHT22;11875;49.356;2.718;2024-03-29T12:45:33;16.70;99.90
23405;DHT22;11875;49.356;2.718;2024-03-29T12:47:59;16.70;99.90
23405;DHT22;11875;49.356;2.718;2024-03-29T12:50:29;16.70;99.90
23405;DHT22;11875;49.356;2.718;2024-03-29T12:53:00;16.80;99.90
23405;DHT22;11875;49.356;2.718;2024-03-29T12:55:27;16.70;99.90
23405;DHT22;11875;49.356;2.718;2024-03-29T12:57:56;16.80;99.90
23405;DHT22;11875;49.356;2.718;2024-03-29T13:00:22;16.70;99.90
23405;DHT22;11875;49.356;2.718;2024-03-29T13:02:48;16.70;99.90
23405;DHT22;11875;49.356;2.718;2024-03-29T13:05:13;16.70;99.90
23405;DHT22;11875;49.356;2.718;2024-03-29T13:07:39;16.70;99.90
23405;DHT22;11875;49.356;2.718;2024-03-29T13:10:05;16.70;99.90
23405;DHT22;11875;49.356;2.718;2024-03-29T13:12:36;16.70;99.90
23405;DHT22;11875;49.356;2.718;2024-03-29T13:15:14;16.60;99.90
23405;DHT22;11875;49.356;2.718;2024-03-29T13:17:39;16.50;99.90
23405;DHT22;11875;49.356;2.718;2024-03-29T13:20:05;16.30;99.90
23405;DHT22;11875;49.356;2.718;2024-03-29T13:22:31;16.30;99.90
23405;DHT22;11875;49.356;2.718;2024-03-29T13:24:56;16.40;99.90
23405;DHT22;11875;49.356;2.718;2024-03-29T13:27:22;16.50;99.90
23405;DHT22;11875;49.356;2.718;2024-03-29T13:29:48;16.50;99.90
23405;DHT22;11875;49.356;2.718;2024-03-29T13:32:14;16.50;99.90
23405;DHT22;11875;49.356;2.718;2024-03-29T13:34:40;16.50;99.90
23405;DHT22;11875;49.356;2.718;2024-03-29T13:37:06;16.50;99.90
23405;DHT22;11875;49.356;2.718;2024-03-29T13:39:31;16.60;99.90
23405;DHT22;11875;49.356;2.718;2024-03-29T13:41:57;16.60;99.90
23405;DHT22;11875;49.356;2.718;2024-03-29T13:44:24;16.70;99.90
23405;DHT22;11875;49.356;2.718;2024-03-29T13:46:50;16.60;99.90
23405;DHT22;11875;49.356;2.718;2024-03-29T13:49:16;16.60;99.90
23405;DHT22;11875;49.356;2.718;2024-03-29T13:51:46;16.80;99.90
23405;DHT22;11875;49.356;2.718;2024-03-29T13:54:11;17.00;99.90
23405;DHT22;11875;49.356;2.718;2024-03-29T13:56:37;17.20;99.90
23405;DHT22;11875;49.356;2.718;2024-03-29T13:59:02;17.20;99.90
23405;DHT22;11875;49.356;2.718;2024-03-29T14:01:28;17.20;99.90
23405;DHT22;11875;49.356;2.718;2024-03-29T14:03:54;17.30;99.90
23405;DHT22;11875;49.356;2.718;2024-03-29T14:06:20;17.30;99.90
23405;DHT22;11875;49.356;2.718;2024-03-29T14:08:46;17.40;99.90
23405;DHT22;11875;49.356;2.718;2024-03-29T14:11:11;17.30;99.90
23405;DHT22;11875;49.356;2.718;2024-03-29T14:13:37;17.20;99.90
23405;DHT22;11875;49.356;2.718;2024-03-29T14:16:02;17.10;99.90
23405;DHT22;11875;49.356;2.718;2024-03-29T14:18:29;17.10;99.90
23405;DHT22;11875;49.356;2.718;2024-03-29T14:20:54;17.10;99.90
23405;DHT22;11875;49.356;2.718;2024-03-29T14:23:20;17.10;99.90
23405;DHT22;11875;49.356;2.718;2024-03-29T14:25:48;17.00;99.90
23405;DHT22;11875;49.356;2.718;2024-03-29T14:28:14;16.90;99.90
23405;DHT22;11875;49.356;2.718;2024-03-29T14:30:39;16.90;99.90
23405;DHT22;11875;49.356;2.718;2024-03-29T14:33:05;16.80;99.90
23405;DHT22;11875;49.356;2.718;2024-03-29T14:35:37;16.80;99.90
23405;DHT22;11875;49.356;2.718;2024-03-29T14:38:02;16.80;99.90
23405;DHT22;11875;49.356;2.718;2024-03-29T14:40:28;16.80;99.90
23405;DHT22;11875;49.356;2.718;2024-03-29T14:42:54;16.80;99.90
23405;DHT22;11875;49.356;2.718;2024-03-29T14:45:20;16.80;99.90
23405;DHT22;11875;49.356;2.718;2024-03-29T14:47:46;16.90;99.90
23405;DHT22;11875;49.356;2.718;2024-03-29T14:50:11;17.00;99.90
23405;DHT22;11875;49.356;2.718;2024-03-29T14:52:37;17.10;99.90
23405;DHT22;11875;49.356;2.718;2024-03-29T14:55:04;17.00;99.90
23405;DHT22;11875;49.356;2.718;2024-03-29T14:57:30;17.10;99.90
23405;DHT22;11875;49.356;2.718;2024-03-29T14:59:56;17.00;99.90
23405;DHT22;11875;49.356;2.718;2024-03-29T15:02:21;17.00;99.90
23405;DHT22;11875;49.356;2.718;2024-03-29T15:04:47;16.90;99.90
23405;DHT22;11875;49.356;2.718;2024-03-29T15:07:13;16.90;99.90
23405;DHT22;11875;49.356;2.718;2024-03-29T15:09:38;16.80;99.90
23405;DHT22;11875;49.356;2.718;2024-03-29T15:12:04;16.80;99.90
23405;DHT22;11875;49.356;2.718;2024-03-29T15:14:31;16.70;99.90
23405;DHT22;11875;49.356;2.718;2024-03-29T15:16:56;16.70;99.90
23405;DHT22;11875;49.356;2.718;2024-03-29T15:19:22;16.70;99.90
23405;DHT22;11875;49.356;2.718;2024-03-29T15:21:48;16.90;99.90
23405;DHT22;11875;49.356;2.718;2024-03-29T15:24:15;16.90;99.90
23405;DHT22;11875;49.356;2.718;2024-03-29T15:26:41;16.70;99.90
23405;DHT22;11875;49.356;2.718;2024-03-29T15:29:06;16.70;99.90
23405;DHT22;11875;49.356;2.718;2024-03-29T15:31:40;16.60;99.90
23405;DHT22;11875;49.356;2.718;2024-03-29T15:34:07;16.60;99.90